sensor_id;sensor_type;location;lat;lon;timestamp;P1;durP1;ratioP1;P2;durP2;ratioP2
66741;SDS011;53654;54.152;19.432;2023-03-14T00:01:14;9.70;;;8.70;;
66741;SDS011;53654;54.152;19.432;2023-03-14T00:03:45;9.80;;;8.80;;
66741;SDS011;53654;54.152;19.432;2023-03-14T00:06:14;10.10;;;8.80;;
66741;SDS011;53654;54.152;19.432;2023-03-14T00:08:42;9.40;;;8.50;;
66741;SDS011;53654;54.152;19.432;2023-03-14T00:11:12;10.10;;;8.90;;
66741;SDS011;53654;54.152;19.432;2023-03-14T00:13:46;9.50;;;8.50;;
66741;SDS011;53654;54.152;19.432;2023-03-14T00:16:17;10.50;;;9.30;;
66741;SDS011;53654;54.152;19.432;2023-03-14T00:18:46;10.60;;;9.50;;
66741;SDS011;53654;54.152;19.432;2023-03-14T00:21:15;10.70;;;9.40;;
66741;SDS011;53654;54.152;19.432;2023-03-14T00:23:43;9.70;;;8.30;;
66741;SDS011;53654;54.152;19.432;2023-03-14T00:26:12;9.90;;;8.20;;
66741;SDS011;53654;54.152;19.432;2023-03-14T00:28:45;9.20;;;8.20;;
66741;SDS011;53654;54.152;19.432;2023-03-14T00:31:17;9.00;;;8.10;;
66741;SDS011;53654;54.152;19.432;2023-03-14T00:33:45;9.20;;;8.20;;
66741;SDS011;53654;54.152;19.432;2023-03-14T00:36:14;9.20;;;8.30;;
66741;SDS011;53654;54.152;19.432;2023-03-14T00:38:45;9.00;;;8.00;;
66741;SDS011;53654;54.152;19.432;2023-03-14T00:41:15;9.10;;;8.20;;
66741;SDS011;53654;54.152;19.432;2023-03-14T00:43:47;10.00;;;9.00;;
66741;SDS011;53654;54.152;19.432;2023-03-14T00:46:15;9.80;;;8.80;;
66741;SDS011;53654;54.152;19.432;2023-03-14T00:48:44;10.10;;;8.70;;
66741;SDS011;53654;54.152;19.432;2023-03-14T00:51:14;10.90;;;9.20;;
66741;SDS011;53654;54.152;19.432;2023-03-14T00:53:43;10.10;;;9.00;;
66741;SDS011;53654;54.152;19.432;2023-03-14T00:56:13;10.00;;;8.80;;
66741;SDS011;53654;54.152;19.432;2023-03-14T00:58:41;9.50;;;8.40;;
66741;SDS011;53654;54.152;19.432;2023-03-14T01:01:17;9.60;;;8.00;;
66741;SDS011;53654;54.152;19.432;2023-03-14T01:03:46;8.60;;;7.80;;
66741;SDS011;53654;54.152;19.432;2023-03-14T01:06:17;8.80;;;7.90;;
66741;SDS011;53654;54.152;19.432;2023-03-14T01:08:50;9.70;;;8.00;;
66741;SDS011;53654;54.152;19.432;2023-03-14T01:11:19;9.30;;;8.30;;
66741;SDS011;53654;54.152;19.432;2023-03-14T01:13:53;9.40;;;8.10;;
66741;SDS011;53654;54.152;19.432;2023-03-14T01:16:22;9.70;;;8.30;;
66741;SDS011;53654;54.152;19.432;2023-03-14T01:18:52;9.50;;;8.40;;
66741;SDS011;53654;54.152;19.432;2023-03-14T01:21:22;9.00;;;8.10;;
66741;SDS011;53654;54.152;19.432;2023-03-14T01:23:53;9.00;;;8.10;;
66741;SDS011;53654;54.152;19.432;2023-03-14T01:26:23;9.00;;;8.10;;
66741;SDS011;53654;54.152;19.432;2023-03-14T01:28:54;8.80;;;7.90;;
66741;SDS011;53654;54.152;19.432;2023-03-14T01:31:23;10.20;;;8.70;;
66741;SDS011;53654;54.152;19.432;2023-03-14T01:33:52;10.70;;;9.60;;
66741;SDS011;53654;54.152;19.432;2023-03-14T01:36:21;10.70;;;9.70;;
66741;SDS011;53654;54.152;19.432;2023-03-14T01:38:49;10.30;;;9.00;;
66741;SDS011;53654;54.152;19.432;2023-03-14T01:41:21;9.50;;;8.00;;
66741;SDS011;53654;54.152;19.432;2023-03-14T01:43:53;9.60;;;8.20;;
66741;SDS011;53654;54.152;19.432;2023-03-14T01:46:23;10.30;;;8.00;;
66741;SDS011;53654;54.152;19.432;2023-03-14T01:52:02;9.00;;;7.70;;
66741;SDS011;53654;54.152;19.432;2023-03-14T01:54:36;8.70;;;7.80;;
66741;SDS011;53654;54.152;19.432;2023-03-14T02:00:18;10.80;;;9.50;;
66741;SDS011;53654;54.152;19.432;2023-03-14T02:02:50;10.80;;;9.20;;
66741;SDS011;53654;54.152;19.432;2023-03-14T02:05:23;8.80;;;7.50;;
66741;SDS011;53654;54.152;19.432;2023-03-14T02:08:01;11.30;;;7.50;;
66741;SDS011;53654;54.152;19.432;2023-03-14T02:10:38;9.30;;;7.30;;
66741;SDS011;53654;54.152;19.432;2023-03-14T02:13:10;8.30;;;7.20;;
66741;SDS011;53654;54.152;19.432;2023-03-14T02:15:50;11.20;;;9.70;;
66741;SDS011;53654;54.152;19.432;2023-03-14T02:22:12;12.40;;;11.10;;
66741;SDS011;53654;54.152;19.432;2023-03-14T02:27:34;11.30;;;9.10;;
66741;SDS011;53654;54.152;19.432;2023-03-14T02:30:04;11.70;;;8.60;;
66741;SDS011;53654;54.152;19.432;2023-03-14T02:32:39;10.70;;;9.30;;
66741;SDS011;53654;54.152;19.432;2023-03-14T02:35:16;11.30;;;9.10;;
66741;SDS011;53654;54.152;19.432;2023-03-14T02:37:55;11.60;;;10.00;;
66741;SDS011;53654;54.152;19.432;2023-03-14T02:40:32;14.00;;;12.50;;
66741;SDS011;53654;54.152;19.432;2023-03-14T02:43:01;12.70;;;10.70;;
66741;SDS011;53654;54.152;19.432;2023-03-14T02:45:34;11.70;;;10.10;;
66741;SDS011;53654;54.152;19.432;2023-03-14T02:48:27;10.20;;;8.80;;
66741;SDS011;53654;54.152;19.432;2023-03-14T02:50:58;9.40;;;8.40;;
66741;SDS011;53654;54.152;19.432;2023-03-14T02:53:32;10.70;;;8.00;;
66741;SDS011;53654;54.152;19.432;2023-03-14T02:56:07;10.20;;;8.60;;
66741;SDS011;53654;54.152;19.432;2023-03-14T02:58:36;10.10;;;9.10;;
66741;SDS011;53654;54.152;19.432;2023-03-14T03:01:18;10.70;;;9.60;;
66741;SDS011;53654;54.152;19.432;2023-03-14T03:03:46;10.40;;;9.30;;
66741;SDS011;53654;54.152;19.432;2023-03-14T03:06:15;10.10;;;8.60;;
66741;SDS011;53654;54.152;19.432;2023-03-14T03:08:43;9.10;;;8.10;;
66741;SDS011;53654;54.152;19.432;2023-03-14T03:11:11;9.60;;;8.40;;
66741;SDS011;53654;54.152;19.432;2023-03-14T03:13:39;9.50;;;8.50;;
66741;SDS011;53654;54.152;19.432;2023-03-14T03:16:07;10.10;;;8.80;;
66741;SDS011;53654;54.152;19.432;2023-03-14T03:18:36;9.50;;;8.50;;
66741;SDS011;53654;54.152;19.432;2023-03-14T03:21:04;10.20;;;8.80;;
66741;SDS011;53654;54.152;19.432;2023-03-14T03:23:33;10.00;;;8.90;;
66741;SDS011;53654;54.152;19.432;2023-03-14T03:26:01;9.10;;;8.20;;
66741;SDS011;53654;54.152;19.432;2023-03-14T03:28:30;10.20;;;8.80;;
66741;SDS011;53654;54.152;19.432;2023-03-14T03:30:59;11.70;;;9.20;;
66741;SDS011;53654;54.152;19.432;2023-03-14T03:33:36;11.90;;;8.80;;
66741;SDS011;53654;54.152;19.432;2023-03-14T03:36:05;11.30;;;9.10;;
66741;SDS011;53654;54.152;19.432;2023-03-14T03:38:35;12.80;;;10.40;;
66741;SDS011;53654;54.152;19.432;2023-03-14T03:41:05;16.90;;;12.70;;
66741;SDS011;53654;54.152;19.432;2023-03-14T03:43:35;18.90;;;14.60;;
66741;SDS011;53654;54.152;19.432;2023-03-14T03:46:05;19.20;;;13.70;;
66741;SDS011;53654;54.152;19.432;2023-03-14T03:48:34;21.30;;;15.10;;
66741;SDS011;53654;54.152;19.432;2023-03-14T03:51:05;21.90;;;15.40;;
66741;SDS011;53654;54.152;19.432;2023-03-14T03:53:34;25.00;;;16.60;;
66741;SDS011;53654;54.152;19.432;2023-03-14T03:56:06;22.30;;;14.90;;
66741;SDS011;53654;54.152;19.432;2023-03-14T03:58:35;19.90;;;13.20;;
66741;SDS011;53654;54.152;19.432;2023-03-14T04:01:03;17.60;;;11.70;;
66741;SDS011;53654;54.152;19.432;2023-03-14T04:03:32;15.00;;;10.70;;
66741;SDS011;53654;54.152;19.432;2023-03-14T04:06:02;15.50;;;10.70;;
66741;SDS011;53654;54.152;19.432;2023-03-14T04:08:37;15.20;;;10.20;;
66741;SDS011;53654;54.152;19.432;2023-03-14T04:11:09;15.60;;;10.10;;
66741;SDS011;53654;54.152;19.432;2023-03-14T04:14:00;16.70;;;10.40;;
66741;SDS011;53654;54.152;19.432;2023-03-14T04:16:29;16.00;;;10.50;;
66741;SDS011;53654;54.152;19.432;2023-03-14T04:19:04;14.30;;;10.30;;
66741;SDS011;53654;54.152;19.432;2023-03-14T04:21:32;16.00;;;10.40;;
66741;SDS011;53654;54.152;19.432;2023-03-14T04:24:00;17.10;;;10.30;;
66741;SDS011;53654;54.152;19.432;2023-03-14T04:26:32;18.40;;;10.80;;
66741;SDS011;53654;54.152;19.432;2023-03-14T04:29:00;22.10;;;13.10;;
66741;SDS011;53654;54.152;19.432;2023-03-14T04:31:28;20.10;;;11.80;;
66741;SDS011;53654;54.152;19.432;2023-03-14T04:33:56;18.90;;;10.80;;
66741;SDS011;53654;54.152;19.432;2023-03-14T04:36:31;20.80;;;11.30;;
66741;SDS011;53654;54.152;19.432;2023-03-14T04:39:03;17.70;;;10.40;;
66741;SDS011;53654;54.152;19.432;2023-03-14T04:41:34;13.20;;;9.20;;
66741;SDS011;53654;54.152;19.432;2023-03-14T04:44:02;15.60;;;12.40;;
66741;SDS011;53654;54.152;19.432;2023-03-14T04:46:30;22.40;;;14.70;;
66741;SDS011;53654;54.152;19.432;2023-03-14T04:48:59;15.90;;;10.30;;
66741;SDS011;53654;54.152;19.432;2023-03-14T04:51:28;13.60;;;9.60;;
66741;SDS011;53654;54.152;19.432;2023-03-14T04:53:56;17.00;;;11.80;;
66741;SDS011;53654;54.152;19.432;2023-03-14T04:56:25;18.70;;;12.80;;
66741;SDS011;53654;54.152;19.432;2023-03-14T04:58:55;17.30;;;12.10;;
66741;SDS011;53654;54.152;19.432;2023-03-14T05:01:23;31.20;;;19.40;;
66741;SDS011;53654;54.152;19.432;2023-03-14T05:04:21;40.10;;;24.00;;
66741;SDS011;53654;54.152;19.432;2023-03-14T05:07:11;25.20;;;16.20;;
66741;SDS011;53654;54.152;19.432;2023-03-14T05:10:10;24.70;;;14.60;;
66741;SDS011;53654;54.152;19.432;2023-03-14T05:13:13;13.40;;;9.10;;
66741;SDS011;53654;54.152;19.432;2023-03-14T05:16:06;10.80;;;7.80;;
66741;SDS011;53654;54.152;19.432;2023-03-14T05:18:55;9.80;;;7.40;;
66741;SDS011;53654;54.152;19.432;2023-03-14T05:21:41;13.10;;;9.20;;
66741;SDS011;53654;54.152;19.432;2023-03-14T05:24:12;8.70;;;7.70;;
66741;SDS011;53654;54.152;19.432;2023-03-14T05:26:53;8.70;;;7.80;;
66741;SDS011;53654;54.152;19.432;2023-03-14T05:29:47;7.20;;;6.50;;
66741;SDS011;53654;54.152;19.432;2023-03-14T05:32:17;8.60;;;7.20;;
66741;SDS011;53654;54.152;19.432;2023-03-14T05:34:55;8.20;;;6.40;;
66741;SDS011;53654;54.152;19.432;2023-03-14T05:37:49;7.00;;;6.10;;
66741;SDS011;53654;54.152;19.432;2023-03-14T05:40:35;8.90;;;6.90;;
66741;SDS011;53654;54.152;19.432;2023-03-14T05:43:12;9.50;;;6.60;;
66741;SDS011;53654;54.152;19.432;2023-03-14T05:46:07;7.70;;;6.40;;
66741;SDS011;53654;54.152;19.432;2023-03-14T05:49:11;7.80;;;6.90;;
66741;SDS011;53654;54.152;19.432;2023-03-14T05:51:49;8.00;;;6.90;;
66741;SDS011;53654;54.152;19.432;2023-03-14T05:54:43;11.40;;;7.20;;
66741;SDS011;53654;54.152;19.432;2023-03-14T05:57:17;11.40;;;8.20;;
66741;SDS011;53654;54.152;19.432;2023-03-14T06:00:11;9.80;;;7.40;;
66741;SDS011;53654;54.152;19.432;2023-03-14T06:02:44;11.30;;;7.60;;
66741;SDS011;53654;54.152;19.432;2023-03-14T06:05:18;10.10;;;7.50;;
66741;SDS011;53654;54.152;19.432;2023-03-14T06:07:47;7.70;;;6.90;;
66741;SDS011;53654;54.152;19.432;2023-03-14T06:10:15;8.70;;;6.80;;
66741;SDS011;53654;54.152;19.432;2023-03-14T06:12:43;8.40;;;6.70;;
66741;SDS011;53654;54.152;19.432;2023-03-14T06:15:11;8.90;;;6.60;;
66741;SDS011;53654;54.152;19.432;2023-03-14T06:17:40;6.80;;;5.60;;
66741;SDS011;53654;54.152;19.432;2023-03-14T06:20:10;7.90;;;6.00;;
66741;SDS011;53654;54.152;19.432;2023-03-14T06:22:39;9.00;;;7.40;;
66741;SDS011;53654;54.152;19.432;2023-03-14T06:25:08;8.80;;;7.40;;
66741;SDS011;53654;54.152;19.432;2023-03-14T06:27:36;9.80;;;8.80;;
66741;SDS011;53654;54.152;19.432;2023-03-14T06:30:05;10.20;;;9.10;;
66741;SDS011;53654;54.152;19.432;2023-03-14T06:32:34;7.30;;;6.50;;
66741;SDS011;53654;54.152;19.432;2023-03-14T06:35:05;7.20;;;6.50;;
66741;SDS011;53654;54.152;19.432;2023-03-14T06:37:37;7.10;;;6.20;;
66741;SDS011;53654;54.152;19.432;2023-03-14T06:40:05;6.90;;;6.30;;
66741;SDS011;53654;54.152;19.432;2023-03-14T06:42:58;7.50;;;6.70;;
66741;SDS011;53654;54.152;19.432;2023-03-14T06:45:27;8.00;;;7.20;;
66741;SDS011;53654;54.152;19.432;2023-03-14T06:47:56;8.00;;;7.20;;
66741;SDS011;53654;54.152;19.432;2023-03-14T06:50:27;9.50;;;8.50;;
66741;SDS011;53654;54.152;19.432;2023-03-14T06:52:57;9.40;;;8.20;;
66741;SDS011;53654;54.152;19.432;2023-03-14T06:55:26;9.40;;;8.00;;
66741;SDS011;53654;54.152;19.432;2023-03-14T06:57:54;8.90;;;7.30;;
66741;SDS011;53654;54.152;19.432;2023-03-14T07:00:22;7.70;;;6.50;;
66741;SDS011;53654;54.152;19.432;2023-03-14T07:02:53;7.40;;;6.70;;
66741;SDS011;53654;54.152;19.432;2023-03-14T07:05:28;7.10;;;6.20;;
66741;SDS011;53654;54.152;19.432;2023-03-14T07:07:56;7.50;;;6.80;;
66741;SDS011;53654;54.152;19.432;2023-03-14T07:10:24;7.30;;;6.50;;
66741;SDS011;53654;54.152;19.432;2023-03-14T07:12:53;7.40;;;6.80;;
66741;SDS011;53654;54.152;19.432;2023-03-14T07:15:23;7.90;;;7.10;;
66741;SDS011;53654;54.152;19.432;2023-03-14T07:17:53;8.60;;;7.50;;
66741;SDS011;53654;54.152;19.432;2023-03-14T07:20:21;10.10;;;8.20;;
66741;SDS011;53654;54.152;19.432;2023-03-14T07:22:51;9.30;;;7.80;;
66741;SDS011;53654;54.152;19.432;2023-03-14T07:25:24;9.10;;;7.30;;
66741;SDS011;53654;54.152;19.432;2023-03-14T07:27:53;10.90;;;8.10;;
66741;SDS011;53654;54.152;19.432;2023-03-14T07:30:21;10.20;;;7.80;;
66741;SDS011;53654;54.152;19.432;2023-03-14T07:32:50;10.50;;;8.40;;
66741;SDS011;53654;54.152;19.432;2023-03-14T07:35:22;10.30;;;7.60;;
66741;SDS011;53654;54.152;19.432;2023-03-14T07:37:50;9.70;;;7.80;;
66741;SDS011;53654;54.152;19.432;2023-03-14T07:40:19;11.30;;;7.70;;
66741;SDS011;53654;54.152;19.432;2023-03-14T07:42:48;9.60;;;7.50;;
66741;SDS011;53654;54.152;19.432;2023-03-14T07:45:25;8.90;;;7.30;;
66741;SDS011;53654;54.152;19.432;2023-03-14T07:47:55;8.50;;;7.40;;
66741;SDS011;53654;54.152;19.432;2023-03-14T07:50:25;8.30;;;7.10;;
66741;SDS011;53654;54.152;19.432;2023-03-14T07:52:54;7.60;;;6.80;;
66741;SDS011;53654;54.152;19.432;2023-03-14T07:55:22;7.20;;;6.50;;
66741;SDS011;53654;54.152;19.432;2023-03-14T07:57:50;8.30;;;7.20;;
66741;SDS011;53654;54.152;19.432;2023-03-14T08:00:19;9.50;;;7.70;;
66741;SDS011;53654;54.152;19.432;2023-03-14T08:02:47;7.80;;;6.80;;
66741;SDS011;53654;54.152;19.432;2023-03-14T08:05:16;7.70;;;6.90;;
66741;SDS011;53654;54.152;19.432;2023-03-14T08:07:44;7.70;;;6.90;;
66741;SDS011;53654;54.152;19.432;2023-03-14T08:10:13;8.60;;;7.40;;
66741;SDS011;53654;54.152;19.432;2023-03-14T08:12:58;8.50;;;7.60;;
66741;SDS011;53654;54.152;19.432;2023-03-14T08:15:28;8.00;;;6.90;;
66741;SDS011;53654;54.152;19.432;2023-03-14T08:17:57;6.90;;;6.20;;
66741;SDS011;53654;54.152;19.432;2023-03-14T08:20:27;7.00;;;5.80;;
66741;SDS011;53654;54.152;19.432;2023-03-14T08:22:57;7.40;;;6.60;;
66741;SDS011;53654;54.152;19.432;2023-03-14T08:25:26;7.40;;;6.40;;
66741;SDS011;53654;54.152;19.432;2023-03-14T08:27:55;7.70;;;6.60;;
66741;SDS011;53654;54.152;19.432;2023-03-14T08:30:24;6.80;;;6.10;;
66741;SDS011;53654;54.152;19.432;2023-03-14T08:32:52;7.30;;;6.60;;
66741;SDS011;53654;54.152;19.432;2023-03-14T08:35:20;7.70;;;6.90;;
66741;SDS011;53654;54.152;19.432;2023-03-14T08:37:48;7.10;;;6.40;;
66741;SDS011;53654;54.152;19.432;2023-03-14T08:40:16;7.20;;;6.50;;
66741;SDS011;53654;54.152;19.432;2023-03-14T08:42:45;9.80;;;7.20;;
66741;SDS011;53654;54.152;19.432;2023-03-14T08:45:14;8.40;;;7.30;;
66741;SDS011;53654;54.152;19.432;2023-03-14T08:47:44;8.80;;;7.80;;
66741;SDS011;53654;54.152;19.432;2023-03-14T08:50:13;7.90;;;7.20;;
66741;SDS011;53654;54.152;19.432;2023-03-14T08:52:43;7.60;;;6.80;;
66741;SDS011;53654;54.152;19.432;2023-03-14T08:55:11;6.40;;;5.80;;
66741;SDS011;53654;54.152;19.432;2023-03-14T08:57:39;7.20;;;6.50;;
66741;SDS011;53654;54.152;19.432;2023-03-14T09:00:08;7.10;;;6.40;;
66741;SDS011;53654;54.152;19.432;2023-03-14T09:02:40;6.90;;;6.20;;
66741;SDS011;53654;54.152;19.432;2023-03-14T09:05:08;7.10;;;6.30;;
66741;SDS011;53654;54.152;19.432;2023-03-14T09:07:38;6.90;;;6.30;;
66741;SDS011;53654;54.152;19.432;2023-03-14T09:10:07;7.60;;;6.50;;
66741;SDS011;53654;54.152;19.432;2023-03-14T09:12:36;7.20;;;6.40;;
66741;SDS011;53654;54.152;19.432;2023-03-14T09:15:05;7.70;;;6.50;;
66741;SDS011;53654;54.152;19.432;2023-03-14T09:17:34;7.50;;;6.70;;
66741;SDS011;53654;54.152;19.432;2023-03-14T09:20:03;7.20;;;6.50;;
66741;SDS011;53654;54.152;19.432;2023-03-14T09:22:34;7.30;;;6.60;;
66741;SDS011;53654;54.152;19.432;2023-03-14T09:25:04;7.70;;;6.60;;
66741;SDS011;53654;54.152;19.432;2023-03-14T09:27:32;7.30;;;6.50;;
66741;SDS011;53654;54.152;19.432;2023-03-14T09:30:00;7.60;;;6.70;;
66741;SDS011;53654;54.152;19.432;2023-03-14T09:32:29;7.80;;;7.00;;
66741;SDS011;53654;54.152;19.432;2023-03-14T09:34:59;7.20;;;6.60;;
66741;SDS011;53654;54.152;19.432;2023-03-14T09:37:28;7.80;;;7.00;;
66741;SDS011;53654;54.152;19.432;2023-03-14T09:39:56;7.70;;;6.80;;
66741;SDS011;53654;54.152;19.432;2023-03-14T09:42:25;7.00;;;6.40;;
66741;SDS011;53654;54.152;19.432;2023-03-14T09:45:05;7.40;;;6.70;;
66741;SDS011;53654;54.152;19.432;2023-03-14T09:47:38;6.70;;;6.10;;
66741;SDS011;53654;54.152;19.432;2023-03-14T09:50:25;6.60;;;6.00;;
66741;SDS011;53654;54.152;19.432;2023-03-14T09:53:01;7.00;;;6.20;;
66741;SDS011;53654;54.152;19.432;2023-03-14T09:55:32;6.50;;;5.90;;
66741;SDS011;53654;54.152;19.432;2023-03-14T09:58:04;7.00;;;5.70;;
66741;SDS011;53654;54.152;19.432;2023-03-14T10:00:38;6.30;;;5.70;;
66741;SDS011;53654;54.152;19.432;2023-03-14T10:03:14;6.30;;;5.70;;
66741;SDS011;53654;54.152;19.432;2023-03-14T10:05:49;6.10;;;5.50;;
66741;SDS011;53654;54.152;19.432;2023-03-14T10:08:18;6.70;;;6.00;;
66741;SDS011;53654;54.152;19.432;2023-03-14T10:10:46;6.50;;;5.90;;
66741;SDS011;53654;54.152;19.432;2023-03-14T10:15:46;6.70;;;6.10;;
66741;SDS011;53654;54.152;19.432;2023-03-14T10:18:28;7.30;;;6.60;;
66741;SDS011;53654;54.152;19.432;2023-03-14T10:23:32;7.40;;;6.70;;
66741;SDS011;53654;54.152;19.432;2023-03-14T10:28:44;7.20;;;6.50;;
66741;SDS011;53654;54.152;19.432;2023-03-14T10:31:15;7.00;;;6.30;;
66741;SDS011;53654;54.152;19.432;2023-03-14T10:33:43;6.70;;;6.10;;
66741;SDS011;53654;54.152;19.432;2023-03-14T10:36:27;7.70;;;6.50;;
66741;SDS011;53654;54.152;19.432;2023-03-14T10:41:50;7.50;;;6.80;;
66741;SDS011;53654;54.152;19.432;2023-03-14T10:44:22;7.70;;;7.00;;
66741;SDS011;53654;54.152;19.432;2023-03-14T10:46:56;7.60;;;6.90;;
66741;SDS011;53654;54.152;19.432;2023-03-14T10:49:31;7.30;;;6.30;;
66741;SDS011;53654;54.152;19.432;2023-03-14T10:52:03;7.40;;;6.70;;
66741;SDS011;53654;54.152;19.432;2023-03-14T10:54:42;7.20;;;6.40;;
66741;SDS011;53654;54.152;19.432;2023-03-14T10:57:14;7.20;;;6.60;;
66741;SDS011;53654;54.152;19.432;2023-03-14T10:59:42;7.10;;;6.10;;
66741;SDS011;53654;54.152;19.432;2023-03-14T11:04:55;6.80;;;6.20;;
66741;SDS011;53654;54.152;19.432;2023-03-14T11:07:39;6.50;;;5.90;;
66741;SDS011;53654;54.152;19.432;2023-03-14T11:18:36;6.20;;;5.60;;
66741;SDS011;53654;54.152;19.432;2023-03-14T11:21:13;6.40;;;5.90;;
66741;SDS011;53654;54.152;19.432;2023-03-14T11:29:02;6.20;;;5.60;;
66741;SDS011;53654;54.152;19.432;2023-03-14T11:31:52;6.40;;;5.80;;
66741;SDS011;53654;54.152;19.432;2023-03-14T11:34:27;6.00;;;5.50;;
66741;SDS011;53654;54.152;19.432;2023-03-14T11:37:05;6.40;;;5.90;;
66741;SDS011;53654;54.152;19.432;2023-03-14T11:39:41;6.20;;;5.50;;
66741;SDS011;53654;54.152;19.432;2023-03-14T11:42:15;6.40;;;5.80;;
66741;SDS011;53654;54.152;19.432;2023-03-14T11:44:48;7.60;;;5.90;;
66741;SDS011;53654;54.152;19.432;2023-03-14T11:52:55;5.90;;;5.40;;
66741;SDS011;53654;54.152;19.432;2023-03-14T11:55:27;6.30;;;5.70;;
66741;SDS011;53654;54.152;19.432;2023-03-14T11:58:05;6.20;;;5.60;;
66741;SDS011;53654;54.152;19.432;2023-03-14T12:00:41;5.70;;;5.30;;
66741;SDS011;53654;54.152;19.432;2023-03-14T12:06:09;5.90;;;5.40;;
66741;SDS011;53654;54.152;19.432;2023-03-14T12:13:58;6.00;;;5.50;;
66741;SDS011;53654;54.152;19.432;2023-03-14T12:16:37;5.90;;;5.20;;
66741;SDS011;53654;54.152;19.432;2023-03-14T12:19:42;6.00;;;5.40;;
66741;SDS011;53654;54.152;19.432;2023-03-14T12:24:49;6.00;;;5.50;;
66741;SDS011;53654;54.152;19.432;2023-03-14T12:33:10;6.00;;;5.40;;
66741;SDS011;53654;54.152;19.432;2023-03-14T12:35:45;5.70;;;5.20;;
66741;SDS011;53654;54.152;19.432;2023-03-14T12:38:16;5.30;;;4.70;;
66741;SDS011;53654;54.152;19.432;2023-03-14T12:40:58;5.00;;;4.60;;
66741;SDS011;53654;54.152;19.432;2023-03-14T12:43:29;4.90;;;4.40;;
66741;SDS011;53654;54.152;19.432;2023-03-14T12:48:48;5.30;;;4.40;;
66741;SDS011;53654;54.152;19.432;2023-03-14T12:57:00;4.80;;;4.40;;
66741;SDS011;53654;54.152;19.432;2023-03-14T13:02:26;4.40;;;4.00;;
66741;SDS011;53654;54.152;19.432;2023-03-14T13:05:05;4.30;;;3.90;;
66741;SDS011;53654;54.152;19.432;2023-03-14T13:10:28;4.20;;;3.80;;
66741;SDS011;53654;54.152;19.432;2023-03-14T13:13:21;4.10;;;3.70;;
66741;SDS011;53654;54.152;19.432;2023-03-14T13:15:57;4.70;;;3.60;;
66741;SDS011;53654;54.152;19.432;2023-03-14T13:18:34;4.10;;;3.70;;
66741;SDS011;53654;54.152;19.432;2023-03-14T13:21:03;4.00;;;3.50;;
66741;SDS011;53654;54.152;19.432;2023-03-14T13:26:32;4.20;;;3.30;;
66741;SDS011;53654;54.152;19.432;2023-03-14T13:29:18;4.00;;;3.40;;
66741;SDS011;53654;54.152;19.432;2023-03-14T13:31:49;4.20;;;3.40;;
66741;SDS011;53654;54.152;19.432;2023-03-14T13:34:20;5.30;;;3.10;;
66741;SDS011;53654;54.152;19.432;2023-03-14T13:36:51;4.30;;;3.40;;
66741;SDS011;53654;54.152;19.432;2023-03-14T13:39:20;4.00;;;3.40;;
66741;SDS011;53654;54.152;19.432;2023-03-14T13:41:54;4.50;;;3.50;;
66741;SDS011;53654;54.152;19.432;2023-03-14T13:44:27;4.50;;;3.30;;
66741;SDS011;53654;54.152;19.432;2023-03-14T13:47:02;3.90;;;3.10;;
66741;SDS011;53654;54.152;19.432;2023-03-14T13:49:33;3.40;;;3.10;;
66741;SDS011;53654;54.152;19.432;2023-03-14T13:52:20;4.00;;;3.10;;
66741;SDS011;53654;54.152;19.432;2023-03-14T13:55:00;3.80;;;3.30;;
66741;SDS011;53654;54.152;19.432;2023-03-14T13:57:50;4.90;;;3.10;;
66741;SDS011;53654;54.152;19.432;2023-03-14T14:00:24;4.80;;;3.50;;
66741;SDS011;53654;54.152;19.432;2023-03-14T14:02:55;4.80;;;3.10;;
66741;SDS011;53654;54.152;19.432;2023-03-14T14:05:26;5.60;;;3.30;;
66741;SDS011;53654;54.152;19.432;2023-03-14T14:07:56;5.30;;;3.00;;
66741;SDS011;53654;54.152;19.432;2023-03-14T14:10:25;4.70;;;3.40;;
66741;SDS011;53654;54.152;19.432;2023-03-14T14:13:03;4.10;;;3.10;;
66741;SDS011;53654;54.152;19.432;2023-03-14T14:15:34;5.20;;;3.50;;
66741;SDS011;53654;54.152;19.432;2023-03-14T14:18:08;4.10;;;3.50;;
66741;SDS011;53654;54.152;19.432;2023-03-14T14:20:44;4.00;;;3.60;;
66741;SDS011;53654;54.152;19.432;2023-03-14T14:23:18;4.30;;;3.70;;
66741;SDS011;53654;54.152;19.432;2023-03-14T14:25:53;3.90;;;3.20;;
66741;SDS011;53654;54.152;19.432;2023-03-14T14:36:38;5.10;;;3.50;;
66741;SDS011;53654;54.152;19.432;2023-03-14T14:39:11;5.30;;;3.30;;
66741;SDS011;53654;54.152;19.432;2023-03-14T14:41:47;4.20;;;3.00;;
66741;SDS011;53654;54.152;19.432;2023-03-14T14:44:38;4.80;;;3.00;;
66741;SDS011;53654;54.152;19.432;2023-03-14T14:47:05;5.00;;;3.40;;
66741;SDS011;53654;54.152;19.432;2023-03-14T14:49:33;6.10;;;3.60;;
66741;SDS011;53654;54.152;19.432;2023-03-14T14:52:03;6.30;;;3.80;;
66741;SDS011;53654;54.152;19.432;2023-03-14T14:54:38;6.80;;;3.60;;
66741;SDS011;53654;54.152;19.432;2023-03-14T14:57:18;5.70;;;4.00;;
66741;SDS011;53654;54.152;19.432;2023-03-14T14:59:48;5.40;;;3.50;;
66741;SDS011;53654;54.152;19.432;2023-03-14T15:02:25;4.50;;;2.90;;
66741;SDS011;53654;54.152;19.432;2023-03-14T15:04:59;3.60;;;2.60;;
66741;SDS011;53654;54.152;19.432;2023-03-14T15:07:27;5.10;;;2.60;;
66741;SDS011;53654;54.152;19.432;2023-03-14T15:09:55;4.20;;;2.70;;
66741;SDS011;53654;54.152;19.432;2023-03-14T15:12:23;4.40;;;3.20;;
66741;SDS011;53654;54.152;19.432;2023-03-14T15:14:52;6.70;;;4.00;;
66741;SDS011;53654;54.152;19.432;2023-03-14T15:17:20;6.20;;;3.60;;
66741;SDS011;53654;54.152;19.432;2023-03-14T15:19:48;5.80;;;3.70;;
66741;SDS011;53654;54.152;19.432;2023-03-14T15:22:16;5.30;;;3.30;;
66741;SDS011;53654;54.152;19.432;2023-03-14T15:24:45;4.30;;;3.20;;
66741;SDS011;53654;54.152;19.432;2023-03-14T15:27:13;7.50;;;4.40;;
66741;SDS011;53654;54.152;19.432;2023-03-14T15:29:43;7.90;;;4.90;;
66741;SDS011;53654;54.152;19.432;2023-03-14T15:32:12;12.50;;;7.60;;
66741;SDS011;53654;54.152;19.432;2023-03-14T15:34:43;16.60;;;12.00;;
66741;SDS011;53654;54.152;19.432;2023-03-14T15:37:12;12.80;;;9.10;;
66741;SDS011;53654;54.152;19.432;2023-03-14T15:39:43;11.00;;;7.30;;
66741;SDS011;53654;54.152;19.432;2023-03-14T15:42:11;9.90;;;6.10;;
66741;SDS011;53654;54.152;19.432;2023-03-14T15:44:40;9.10;;;5.30;;
66741;SDS011;53654;54.152;19.432;2023-03-14T15:47:09;12.50;;;6.50;;
66741;SDS011;53654;54.152;19.432;2023-03-14T15:49:38;6.80;;;4.90;;
66741;SDS011;53654;54.152;19.432;2023-03-14T15:52:06;7.00;;;4.90;;
66741;SDS011;53654;54.152;19.432;2023-03-14T15:54:35;7.30;;;4.30;;
66741;SDS011;53654;54.152;19.432;2023-03-14T15:57:03;6.20;;;4.00;;
66741;SDS011;53654;54.152;19.432;2023-03-14T15:59:34;4.50;;;3.80;;
66741;SDS011;53654;54.152;19.432;2023-03-14T16:02:03;6.20;;;4.20;;
66741;SDS011;53654;54.152;19.432;2023-03-14T16:04:31;6.10;;;4.20;;
66741;SDS011;53654;54.152;19.432;2023-03-14T16:06:59;6.10;;;4.30;;
66741;SDS011;53654;54.152;19.432;2023-03-14T16:09:27;5.10;;;4.00;;
66741;SDS011;53654;54.152;19.432;2023-03-14T16:11:55;7.20;;;4.90;;
66741;SDS011;53654;54.152;19.432;2023-03-14T16:14:23;8.60;;;6.00;;
66741;SDS011;53654;54.152;19.432;2023-03-14T16:16:52;9.80;;;7.30;;
66741;SDS011;53654;54.152;19.432;2023-03-14T16:19:23;9.70;;;7.60;;
66741;SDS011;53654;54.152;19.432;2023-03-14T16:21:53;8.30;;;6.90;;
66741;SDS011;53654;54.152;19.432;2023-03-14T16:24:21;8.60;;;7.40;;
66741;SDS011;53654;54.152;19.432;2023-03-14T16:26:49;8.00;;;6.20;;